Time,TemperatureF,DewpointF,PressureIn,WindDirection,WindDirectionDegrees,WindSpeedMPH,WindSpeedGustMPH,Humidity,HourlyPrecipIn,Conditions,Clouds,dailyrainin,SoftwareType,DateUTC
2013-02-05 00:00:00,36.6,24.0,30.01,South,170,0.0,2.0,60,0.00,FEW,,0.00,WeatherDisplay:10.37,2013-02-05 05:00:00,
2013-02-05 00:15:00,36.7,24.1,30.00,South,170,0.0,2.0,60,0.00,FEW,,0.00,WeatherDisplay:10.37,2013-02-05 05:15:00,
2013-02-05 00:30:00,36.8,24.6,29.99,South,170,0.0,1.0,61,0.00,OVC,,0.00,WeatherDisplay:10.37,2013-02-05 05:30:00,
2013-02-05 00:45:00,36.8,24.6,29.99,South,171,0.0,2.0,61,0.00,OVC,,0.00,WeatherDisplay:10.37,2013-02-05 05:45:00,
2013-02-05 01:00:00,36.9,24.7,29.98,South,171,0.0,1.0,61,0.00,OVC,,0.00,WeatherDisplay:10.37,2013-02-05 06:00:00,
2013-02-05 01:15:00,36.8,24.6,29.97,South,171,0.0,2.0,61,0.00,OVC,,0.00,WeatherDisplay:10.37,2013-02-05 06:15:00,
2013-02-05 01:30:00,36.8,24.6,29.97,South,171,0.0,2.0,61,0.00,OVC,,0.00,WeatherDisplay:10.37,2013-02-05 06:30:00,
2013-02-05 01:45:00,36.8,25.0,29.97,South,170,0.0,3.0,62,0.00,OVC,,0.00,WeatherDisplay:10.37,2013-02-05 06:45:00,
2013-02-05 02:00:00,37.0,25.2,29.97,South,171,0.0,4.0,62,0.00,OVC,,0.00,WeatherDisplay:10.37,2013-02-05 07:00:00,
2013-02-05 02:15:00,37.3,25.5,29.97,South,171,0.0,3.0,62,0.00,OVC,,0.00,WeatherDisplay:10.37,2013-02-05 07:15:00,
2013-02-05 02:30:00,37.6,25.7,29.96,SW,219,0.0,4.0,62,0.00,OVC,,0.00,WeatherDisplay:10.37,2013-02-05 07:30:00,
2013-02-05 02:45:00,37.5,26.0,29.95,SW,219,0.0,0.0,63,0.00,OVC,,0.00,WeatherDisplay:10.37,2013-02-05 07:45:00,
2013-02-05 03:00:00,37.2,25.8,29.95,SW,219,0.0,1.0,63,0.00,OVC,,0.00,WeatherDisplay:10.37,2013-02-05 08:00:00,
2013-02-05 03:15:00,37.3,26.2,29.96,SW,219,0.0,2.0,64,0.00,OVC,,0.00,WeatherDisplay:10.37,2013-02-05 08:15:00,
2013-02-05 03:30:00,37.2,26.1,29.95,SW,218,0.0,1.0,64,0.00,OVC,,0.00,WeatherDisplay:10.37,2013-02-05 08:30:00,
2013-02-05 03:45:00,37.0,26.3,29.94,SW,218,0.0,2.0,65,0.00,OVC,,0.00,WeatherDisplay:10.37,2013-02-05 08:45:00,
2013-02-05 04:00:00,37.0,26.3,29.94,SW,218,0.0,3.0,65,0.00,OVC,,0.00,WeatherDisplay:10.37,2013-02-05 09:00:00,
2013-02-05 04:15:00,37.1,26.4,29.95,SW,218,0.0,2.0,65,0.00,OVC,,0.00,WeatherDisplay:10.37,2013-02-05 09:15:00,
2013-02-05 04:30:00,36.9,26.2,29.94,SW,218,0.0,2.0,65,0.00,BKN,,0.00,WeatherDisplay:10.37,2013-02-05 09:30:00,
2013-02-05 04:45:00,36.2,25.9,29.96,SW,218,1.0,3.0,66,0.00,BKN,,0.00,WeatherDisplay:10.37,2013-02-05 09:45:00,
2013-02-05 05:00:00,35.5,25.6,29.95,SW,218,0.0,2.0,67,0.00,BKN,,0.00,WeatherDisplay:10.37,2013-02-05 10:00:00,
2013-02-05 05:15:00,34.6,25.5,29.95,SW,218,0.0,1.0,69,0.00,BKN,,0.00,WeatherDisplay:10.37,2013-02-05 10:15:00,
2013-02-05 05:30:00,33.6,25.2,29.96,SW,218,0.0,1.0,71,0.00,SCT,,0.00,WeatherDisplay:10.37,2013-02-05 10:30:00,
2013-02-05 05:45:00,32.7,24.3,29.96,SW,218,0.0,0.0,71,0.00,SCT,,0.00,WeatherDisplay:10.37,2013-02-05 10:45:00,
2013-02-05 06:00:00,32.0,24.7,29.96,SW,218,0.0,0.0,74,0.00,SCT,,0.00,WeatherDisplay:10.37,2013-02-05 11:00:00,
2013-02-05 06:15:00,31.6,24.6,29.96,SW,218,0.0,1.0,75,0.00,SCT,,0.00,WeatherDisplay:10.37,2013-02-05 11:15:00,
2013-02-05 06:30:00,31.7,25.0,29.97,SW,218,0.0,1.0,76,0.00,OVC,,0.00,WeatherDisplay:10.37,2013-02-05 11:30:00,
2013-02-05 06:45:00,31.9,25.8,29.97,SW,218,0.0,2.0,78,0.00,OVC,,0.00,WeatherDisplay:10.37,2013-02-05 11:45:00,
2013-02-05 07:00:00,31.9,25.9,29.97,SW,218,0.0,1.0,78,0.00,OVC,,0.00,WeatherDisplay:10.37,2013-02-05 12:00:00,
2013-02-05 07:15:00,32.0,25.9,29.96,SW,218,0.0,0.0,78,0.00,OVC,,0.00,WeatherDisplay:10.37,2013-02-05 12:15:00,
2013-02-05 07:30:00,32.1,26.3,29.97,SW,218,0.0,0.0,79,0.00,OVC,,0.00,WeatherDisplay:10.37,2013-02-05 12:30:00,
2013-02-05 07:45:00,32.2,26.4,29.98,SW,218,0.0,0.0,79,0.00,OVC,,0.00,WeatherDisplay:10.37,2013-02-05 12:45:00,
2013-02-05 08:00:00,32.6,26.8,29.97,SW,218,0.0,1.0,79,0.00,OVC,,0.00,WeatherDisplay:10.37,2013-02-05 13:00:00,
2013-02-05 08:15:00,33.3,27.8,29.98,SW,218,0.0,0.0,80,0.00,OVC,,0.00,WeatherDisplay:10.37,2013-02-05 13:15:00,
2013-02-05 08:30:00,34.1,28.6,29.98,SW,218,0.0,1.0,80,0.00,BKN,,0.00,WeatherDisplay:10.37,2013-02-05 13:30:00,
2013-02-05 08:45:00,35.5,29.0,29.99,SW,218,0.0,2.0,77,0.00,BKN,,0.00,WeatherDisplay:10.37,2013-02-05 13:45:00,
2013-02-05 09:00:00,37.1,29.9,29.99,SW,218,0.0,2.0,75,0.00,BKN,,0.00,WeatherDisplay:10.37,2013-02-05 14:00:00,
2013-02-05 09:15:00,38.7,30.4,29.98,SSW,194,1.0,4.0,72,0.00,BKN,,0.00,WeatherDisplay:10.37,2013-02-05 14:15:00,
2013-02-05 09:30:00,40.0,30.3,29.99,South,169,0.0,4.0,68,0.00,BKN,,0.00,WeatherDisplay:10.37,2013-02-05 14:30:00,
2013-02-05 09:45:00,41.3,30.8,29.99,South,189,1.0,5.0,66,0.00,BKN,,0.00,WeatherDisplay:10.37,2013-02-05 14:45:00,
2013-02-05 10:00:00,42.4,31.1,29.99,SSW,196,2.0,5.0,64,0.00,BKN,,0.00,WeatherDisplay:10.37,2013-02-05 15:00:00,
2013-02-05 10:15:00,43.0,30.9,29.99,South,173,1.0,4.0,62,0.00,BKN,,0.00,WeatherDisplay:10.37,2013-02-05 15:15:00,
2013-02-05 10:30:00,43.6,31.4,29.99,SSE,166,1.0,4.0,62,0.00,OVC,,0.00,WeatherDisplay:10.37,2013-02-05 15:30:00,
2013-02-05 10:45:00,44.3,31.2,30.00,SSE,165,2.0,6.0,60,0.00,OVC,,0.00,WeatherDisplay:10.37,2013-02-05 15:45:00,
2013-02-05 11:00:00,45.0,31.1,29.99,South,179,0.0,5.0,58,0.00,OVC,,0.00,WeatherDisplay:10.37,2013-02-05 16:00:00,
2013-02-05 11:15:00,46.1,32.5,29.99,South,177,1.0,5.0,59,0.00,OVC,,0.00,WeatherDisplay:10.37,2013-02-05 16:15:00,
2013-02-05 11:30:00,47.2,32.8,29.99,SSE,153,2.0,5.0,57,0.00,BKN,,0.00,WeatherDisplay:10.37,2013-02-05 16:30:00,
2013-02-05 11:44:00,48.4,32.0,29.97,SE,146,1.0,4.0,53,0.00,BKN,,0.00,WeatherDisplay:10.37,2013-02-05 16:44:00,
2013-02-05 12:00:00,50.1,33.6,29.98,SSE,162,0.0,6.0,53,0.00,BKN,,0.00,WeatherDisplay:10.37,2013-02-05 17:00:00,
2013-02-05 12:14:00,50.0,32.6,29.97,SSW,198,2.0,5.0,51,0.00,BKN,,0.00,WeatherDisplay:10.37,2013-02-05 17:14:00,
2013-02-05 12:30:00,51.0,32.5,29.96,SW,230,2.0,7.0,49,0.00,BKN,,0.00,WeatherDisplay:10.37,2013-02-05 17:30:00,
2013-02-05 12:44:00,52.0,32.4,29.95,West,268,0.0,7.0,47,0.00,BKN,,0.00,WeatherDisplay:10.37,2013-02-05 17:44:00,
2013-02-05 13:00:00,52.6,33.0,29.94,South,185,0.0,6.0,47,0.00,BKN,,0.00,WeatherDisplay:10.37,2013-02-05 18:00:00,
2013-02-05 13:15:00,53.8,32.4,29.94,SW,229,1.0,5.0,44,0.00,BKN,,0.00,WeatherDisplay:10.37,2013-02-05 18:15:00,
2013-02-05 13:30:00,54.1,32.7,29.93,SW,236,2.0,6.0,44,0.00,CLR,,0.00,WeatherDisplay:10.37,2013-02-05 18:30:00,
2013-02-05 13:44:00,55.1,34.1,29.92,West,272,2.0,9.0,45,0.00,CLR,,0.00,WeatherDisplay:10.37,2013-02-05 18:44:00,
2013-02-05 14:00:00,56.0,33.8,29.92,South,191,2.0,8.0,43,0.00,CLR,,0.00,WeatherDisplay:10.37,2013-02-05 19:00:00,
2013-02-05 14:14:00,56.7,34.4,29.92,West,265,2.0,7.0,43,0.00,CLR,,0.00,WeatherDisplay:10.37,2013-02-05 19:14:00,
2013-02-05 14:30:00,57.4,34.5,29.92,West,260,3.0,10.0,42,0.00,CLR,,0.00,WeatherDisplay:10.37,2013-02-05 19:30:00,
2013-02-05 14:44:00,57.7,34.7,29.92,NW,305,3.0,12.0,42,0.00,CLR,,0.00,WeatherDisplay:10.37,2013-02-05 19:44:00,
2013-02-05 15:00:00,57.8,35.4,29.92,WNW,286,6.0,10.0,43,0.00,CLR,,0.00,WeatherDisplay:10.37,2013-02-05 20:00:00,
2013-02-05 15:14:00,58.2,35.2,29.92,West,274,3.0,13.0,42,0.00,CLR,,0.00,WeatherDisplay:10.37,2013-02-05 20:14:00,
2013-02-05 15:30:00,58.1,34.5,29.92,WNW,286,2.0,10.0,41,0.00,CLR,,0.00,WeatherDisplay:10.37,2013-02-05 20:30:00,
2013-02-05 15:44:00,56.9,34.6,29.92,NW,308,2.0,9.0,43,0.00,CLR,,0.00,WeatherDisplay:10.37,2013-02-05 20:44:00,
2013-02-05 16:00:00,57.1,34.8,29.92,WNW,290,3.0,7.0,43,0.00,CLR,,0.00,WeatherDisplay:10.37,2013-02-05 21:00:00,
2013-02-05 16:14:00,57.4,34.5,29.92,WSW,258,5.0,8.0,42,0.00,CLR,,0.00,WeatherDisplay:10.37,2013-02-05 21:14:00,
2013-02-05 16:30:00,57.5,34.6,29.92,NW,325,3.0,10.0,42,0.00,CLR,,0.00,WeatherDisplay:10.37,2013-02-05 21:30:00,
2013-02-05 16:44:00,57.4,35.1,29.92,NW,307,3.0,7.0,43,0.00,CLR,,0.00,WeatherDisplay:10.37,2013-02-05 21:44:00,
2013-02-05 17:00:00,56.6,34.9,29.92,WNW,286,1.0,6.0,44,0.00,CLR,,0.00,WeatherDisplay:10.37,2013-02-05 22:00:00,
2013-02-05 17:14:00,55.9,35.4,29.92,NW,319,3.0,7.0,46,0.00,CLR,,0.00,WeatherDisplay:10.37,2013-02-05 22:14:00,
2013-02-05 17:30:00,55.1,34.7,29.93,NW,324,3.0,9.0,46,0.00,CLR,,0.00,WeatherDisplay:10.37,2013-02-05 22:30:00,
2013-02-05 17:44:00,54.2,34.4,29.93,NW,317,2.0,9.0,47,0.00,CLR,,0.00,WeatherDisplay:10.37,2013-02-05 22:44:00,
2013-02-05 18:00:00,53.3,34.1,29.94,WNW,299,2.0,6.0,48,0.00,CLR,,0.00,WeatherDisplay:10.37,2013-02-05 23:00:00,
2013-02-05 18:14:00,52.3,33.7,29.94,NW,305,1.0,6.0,49,0.00,CLR,,0.00,WeatherDisplay:10.37,2013-02-05 23:14:00,
2013-02-05 18:30:00,51.6,33.1,29.94,NW,314,1.0,5.0,49,0.00,CLR,,0.00,WeatherDisplay:10.37,2013-02-05 23:30:00,
2013-02-05 18:44:00,50.6,32.6,29.96,NW,316,1.0,4.0,50,0.00,CLR,,0.00,WeatherDisplay:10.37,2013-02-05 23:44:00,
2013-02-05 19:00:00,49.7,32.3,29.96,North,357,1.0,6.0,51,0.00,CLR,,0.00,WeatherDisplay:10.37,2013-02-06 00:00:00,
2013-02-05 19:14:00,48.9,32.5,29.96,North,0,0.0,3.0,53,0.00,CLR,,0.00,WeatherDisplay:10.37,2013-02-06 00:14:00,
2013-02-05 19:30:00,47.1,31.7,29.97,North,0,0.0,1.0,55,0.00,CLR,,0.00,WeatherDisplay:10.37,2013-02-06 00:30:00,
2013-02-05 19:44:00,45.6,31.2,29.97,North,0,0.0,0.0,57,0.00,CLR,,0.00,WeatherDisplay:10.37,2013-02-06 00:44:00,
2013-02-05 19:59:00,44.2,31.2,29.97,North,0,0.0,0.0,60,0.00,CLR,,0.00,WeatherDisplay:10.37,2013-02-06 00:59:00,
2013-02-05 20:14:00,43.0,30.9,29.97,North,0,0.0,0.0,62,0.00,CLR,,0.00,WeatherDisplay:10.37,2013-02-06 01:14:00,
2013-02-05 20:30:00,42.0,30.3,29.97,North,0,0.0,0.0,63,0.00,CLR,,0.00,WeatherDisplay:10.37,2013-02-06 01:30:00,
2013-02-05 20:44:00,41.0,30.5,29.98,North,0,0.0,0.0,66,0.00,CLR,,0.00,WeatherDisplay:10.37,2013-02-06 01:44:00,
2013-02-05 21:00:00,40.0,30.0,29.98,North,0,0.0,0.0,67,0.00,CLR,,0.00,WeatherDisplay:10.37,2013-02-06 02:00:00,
2013-02-05 21:14:00,39.1,29.8,29.98,North,0,0.0,0.0,69,0.00,CLR,,0.00,WeatherDisplay:10.37,2013-02-06 02:14:00,
2013-02-05 21:30:00,38.3,29.0,29.99,North,0,0.0,0.0,69,0.00,CLR,,0.00,WeatherDisplay:10.37,2013-02-06 02:30:00,
2013-02-05 21:44:00,37.3,29.1,29.99,North,0,0.0,0.0,72,0.00,CLR,,0.00,WeatherDisplay:10.37,2013-02-06 02:44:00,
2013-02-05 22:00:00,36.7,28.5,29.99,North,0,0.0,0.0,72,0.00,CLR,,0.00,WeatherDisplay:10.37,2013-02-06 03:00:00,
2013-02-05 22:14:00,35.9,28.4,29.99,North,0,0.0,0.0,74,0.00,CLR,,0.00,WeatherDisplay:10.37,2013-02-06 03:14:00,
2013-02-05 22:30:00,35.2,28.4,29.99,North,0,0.0,0.0,76,0.00,CLR,,0.00,WeatherDisplay:10.37,2013-02-06 03:30:00,
2013-02-05 22:44:00,34.6,28.1,29.99,North,0,0.0,0.0,77,0.00,CLR,,0.00,WeatherDisplay:10.37,2013-02-06 03:44:00,
2013-02-05 23:00:00,33.9,27.8,29.99,North,0,0.0,0.0,78,0.00,CLR,,0.00,WeatherDisplay:10.37,2013-02-06 04:00:00,
2013-02-05 23:14:00,33.2,27.1,29.99,North,0,0.0,0.0,78,0.00,CLR,,0.00,WeatherDisplay:10.37,2013-02-06 04:14:00,
2013-02-05 23:30:00,32.7,26.9,30.00,North,0,0.0,0.0,79,0.00,CLR,,0.00,WeatherDisplay:10.37,2013-02-06 04:30:00,
2013-02-05 23:44:00,32.3,26.8,30.00,North,0,0.0,0.0,80,0.00,CLR,,0.00,WeatherDisplay:10.37,2013-02-06 04:44:00,